Latest Weather Observations for Moomba Airport

IDS60801

Issued at 8:05 pm CST Sunday 20 April 2014 (issued every 30 minutes, with the page automatically refreshed every 10 minutes)

About weather observations | Map of weather stations | Latest weather observations for SA | Other Formats
Station Details ID: 017123 Name: MOOMBA AIRPORT Lat: -28.10 Lon: 140.20 Height: 37.8 m
Data from the previous 72 hours. | See also: Recent months at Moomba Airport
Date/Time
CST
Temp
°C
App
Temp
°C
Dew
Point
Rel
Hum
%
Delta-T
°C
Wind Press
QNH
hPa
Press
MSL
hPa
Rain
since 9 am
mm
Dir
 
Spd
km/h
Gust
km/h
Spd
kts
Gust
kts
20/08:00pm 24.9 22.5 7.1 32 9.3 SSE 9 13 5 7 1017.8 - 0.0
20/07:30pm 25.3 21.8 7.0 31 9.6 SSE 15 17 8 9 1017.6 - 0.0
20/07:00pm 25.5 22.4 7.1 31 9.7 S 13 17 7 9 1017.3 - 0.0
20/06:30pm 26.3 23.6 7.4 30 10.0 S 11 13 6 7 1016.9 - 0.0
20/06:00pm 26.9 24.2 7.4 29 10.4 S 11 13 6 7 1016.5 1016.4 0.0
20/05:30pm 27.7 24.7 7.5 28 10.8 SSE 13 17 7 9 1016.1 - 0.0
20/05:00pm 28.2 24.7 7.4 27 11.2 SSE 15 20 8 11 1016.0 - 0.0
20/04:30pm 28.5 25.7 7.1 26 11.5 S 11 19 6 10 1015.9 - 0.0
20/04:00pm 28.6 25.1 7.2 26 11.5 S 15 22 8 12 1015.9 - 0.0
20/03:30pm 28.4 25.0 7.6 27 11.2 S 15 26 8 14 1016.0 - 0.0
20/03:00pm 28.5 24.4 7.7 27 11.2 S 19 26 10 14 1016.2 1016.1 0.0
20/02:30pm 28.5 24.4 7.7 27 11.2 S 19 32 10 17 1016.3 - 0.0
20/02:00pm 28.4 25.5 8.1 28 11.0 S 13 20 7 11 1016.5 - 0.0
20/01:30pm 28.6 25.9 8.8 29 10.9 S 13 24 7 13 1016.7 - 0.0
20/01:00pm 27.9 24.8 8.7 30 10.5 S 15 22 8 12 1017.3 - 0.0
20/12:30pm 27.6 24.2 9.0 31 10.2 SW 17 22 9 12 1017.6 - 0.0
20/12:00pm 26.9 24.4 8.4 31 10.0 SW 11 17 6 9 1018.2 1018.1 0.0
20/11:30am 26.8 25.3 8.3 31 10.0 SE 6 13 3 7 1018.8 - 0.0
20/11:00am 26.1 24.2 7.7 31 9.8 SSE 7 11 4 6 1019.2 - 0.0
20/10:30am 26.0 24.3 7.6 31 9.8 N 6 15 3 8 1019.4 - 0.0
20/10:00am 25.6 23.8 7.2 31 9.7 NE 6 11 3 6 1019.6 - 0.0
20/09:30am 24.4 21.1 6.6 32 9.2 ENE 13 17 7 9 1019.5 - 0.0
20/09:00am 23.2 19.1 6.0 33 8.7 ENE 17 20 9 11 1019.6 1019.5 0.0
20/08:30am 21.5 18.0 5.4 35 8.0 ENE 13 17 7 9 1019.3 - 0.0
20/08:00am 19.4 16.1 6.2 42 6.6 ENE 13 15 7 8 1019.1 - 0.0
20/07:30am 16.9 14.4 6.4 50 5.2 ENE 9 13 5 7 1019.0 - 0.0
20/07:00am 14.6 11.7 6.4 58 4.0 ENE 11 11 6 6 1018.7 - 0.0
20/06:30am 13.7 11.2 6.6 62 3.4 NE 9 11 5 6 1018.6 - 0.0
20/06:00am 14.5 11.6 6.6 59 3.8 NE 11 13 6 7 1018.3 1018.2 0.0
20/05:30am 14.6 11.8 6.9 60 3.8 NE 11 13 6 7 1018.0 - 0.0
20/05:00am 14.4 11.6 7.0 61 3.6 NE 11 15 6 8 1017.7 - 0.0
20/04:30am 14.7 11.9 7.0 60 3.8 NE 11 13 6 7 1017.5 - 0.0
20/04:00am 14.7 12.0 7.3 61 3.6 NE 11 11 6 6 1017.3 - 0.0
20/03:30am 15.1 12.4 7.2 59 3.9 ENE 11 11 6 6 1017.3 - 0.0
20/03:00am 15.5 12.8 7.3 58 4.1 NE 11 13 6 7 1017.4 1017.3 0.0
20/02:30am 15.3 13.0 7.3 59 4.0 NE 9 11 5 6 1017.4 - 0.0
20/02:00am 15.5 13.2 7.5 59 4.0 ENE 9 9 5 5 1017.5 - 0.0
20/01:30am 15.4 13.1 7.4 59 4.0 E 9 11 5 6 1017.7 - 0.0
20/01:00am 16.0 13.7 7.5 57 4.2 E 9 11 5 6 1017.8 - 0.0
20/12:30am 16.5 14.7 8.0 57 4.3 E 7 9 4 5 1017.9 - 0.0
20/12:00am 16.5 14.3 8.0 57 4.3 E 9 9 5 5 1018.0 1017.9 0.0
 
Date/Time
CST
Temp
°C
App
Temp
°C
Dew
Point
Rel
Hum
%
Delta-T
°C
Wind Press
QNH
hPa
Press
MSL
hPa
Rain
since 9 am
mm
Dir
 
Spd
km/h
Gust
km/h
Spd
kts
Gust
kts
19/11:30pm 16.8 14.3 8.2 57 4.4 E 11 13 6 7 1018.1 - 0.0
19/11:00pm 17.2 14.7 8.4 56 4.5 E 11 11 6 6 1018.3 - 0.0
19/10:30pm 17.8 15.7 8.4 54 4.8 ESE 9 9 5 5 1018.5 - 0.0
19/10:00pm 18.3 16.6 8.3 52 5.1 E 7 44 4 24 1018.7 - 0.0
19/09:30pm 20.2 18.4 9.5 50 5.7 ESE 9 11 5 6 1018.6 - 0.0
19/09:00pm 20.4 18.0 8.7 47 6.1 ESE 11 15 6 8 1018.6 1018.5 0.0
19/08:30pm 22.4 19.0 9.2 43 7.1 SE 17 20 9 11 1018.5 - 0.0
19/08:00pm 22.6 20.1 9.7 44 7.0 SSE 13 17 7 9 1018.3 - 0.0
19/07:30pm 23.0 20.4 9.4 42 7.4 S 13 19 7 10 1018.1 - 0.0
19/07:00pm 23.6 20.7 9.6 41 7.6 S 15 20 8 11 1017.8 - 0.0
19/06:30pm 24.1 21.1 9.3 39 8.0 S 15 19 8 10 1017.5 - 0.0
19/06:00pm 24.9 21.5 9.2 37 8.5 S 17 22 9 12 1017.2 1017.1 0.0
19/05:30pm 25.7 22.4 9.5 36 8.9 SSE 17 24 9 13 1016.8 - 0.0
19/05:00pm 26.2 22.2 9.1 34 9.4 S 20 28 11 15 1016.7 - 0.0
19/04:30pm 26.5 22.2 9.4 34 9.4 S 22 33 12 18 1016.6 - 0.0
19/04:00pm 26.9 23.1 9.7 34 9.5 S 20 30 11 16 1016.6 - 0.0
19/03:30pm 27.0 24.1 9.8 34 9.6 S 15 30 8 16 1016.7 - 0.0
19/03:00pm 27.0 23.3 9.4 33 9.7 S 19 26 10 14 1016.7 1016.6 0.0
19/02:30pm 27.1 24.2 9.5 33 9.7 S 15 28 8 15 1017.0 - 0.0
19/02:00pm 27.3 23.5 9.2 32 10.0 S 19 30 10 16 1017.2 - 0.0
19/01:30pm 26.5 23.2 9.4 34 9.4 SSE 17 24 9 13 1017.5 - 0.0
19/01:00pm 26.8 23.9 9.6 34 9.5 S 15 22 8 12 1018.0 - 0.0
19/12:30pm 26.2 22.5 9.5 35 9.2 SE 19 26 10 14 1018.6 - 0.0
19/12:00pm 25.9 23.8 9.7 36 8.9 SE 11 19 6 10 1019.2 1019.1 0.0
19/11:30am 25.9 23.1 10.1 37 8.8 SE 15 22 8 12 1019.7 - 0.0
19/11:00am 24.7 22.2 9.8 39 8.2 ESE 13 19 7 10 1020.2 - 0.0
19/10:30am 24.6 21.4 10.1 40 8.0 E 17 24 9 13 1020.4 - 0.0
19/10:00am 23.9 20.9 10.6 43 7.4 E 17 24 9 13 1020.7 - 0.0
19/09:30am 23.0 19.5 10.8 46 6.8 E 20 28 11 15 1020.9 - 0.0
19/09:00am 22.1 18.2 10.9 49 6.2 ESE 22 26 12 14 1021.1 1021.0 0.0
19/08:30am 21.3 18.0 10.8 51 5.8 E 19 24 10 13 1021.1 - 0.0
19/08:00am 19.6 16.6 10.6 56 4.9 E 17 20 9 11 1020.8 - 0.0
19/07:30am 18.1 15.4 10.5 61 4.1 ESE 15 19 8 10 1020.7 - 0.0
19/07:00am 16.7 13.9 10.1 65 3.5 ESE 15 19 8 10 1020.6 - 0.0
19/06:30am 16.5 12.9 9.7 64 3.6 ESE 19 24 10 13 1020.3 - 0.0
19/06:00am 17.1 13.5 9.8 62 3.8 SE 19 26 10 14 1020.3 1020.2 0.0
19/05:30am 17.0 14.5 9.7 62 3.8 S 13 19 7 10 1020.1 - 0.0
19/05:00am 17.1 14.2 9.5 61 4.0 S 15 19 8 10 1020.0 - 0.0
19/04:30am 17.5 14.5 9.4 59 4.2 S 15 20 8 11 1019.7 - 0.0
19/04:00am 18.0 15.1 9.6 58 4.4 S 15 20 8 11 1019.6 - 0.0
19/03:30am 18.1 15.1 9.2 56 4.7 S 15 19 8 10 1019.5 - 0.0
19/03:00am 18.4 15.7 8.9 54 4.9 S 13 15 7 8 1019.6 1019.5 0.0
19/02:30am 18.7 16.0 8.9 53 5.1 S 13 17 7 9 1019.7 - 0.0
19/02:00am 18.6 16.2 8.6 52 5.2 S 11 15 6 8 1019.8 - 0.0
19/01:30am 19.0 16.6 8.6 51 5.4 S 11 15 6 8 1019.9 - 0.0
19/01:00am 19.6 16.8 8.6 49 5.7 S 13 17 7 9 1020.0 - 0.0
19/12:30am 20.8 17.6 8.4 45 6.5 S 15 20 8 11 1019.9 - 0.0
19/12:00am 21.7 17.8 8.6 43 6.9 SSE 19 24 10 13 1019.8 1019.7 0.0
 
Date/Time
CST
Temp
°C
App
Temp
°C
Dew
Point
Rel
Hum
%
Delta-T
°C
Wind Press
QNH
hPa
Press
MSL
hPa
Rain
since 9 am
mm
Dir
 
Spd
km/h
Gust
km/h
Spd
kts
Gust
kts
18/11:30pm 22.0 18.1 8.5 42 7.1 SSE 19 24 10 13 1019.9 - 0.0
18/11:00pm 22.6 18.6 8.3 40 7.6 SE 19 26 10 14 1019.9 - 0.0
18/10:30pm 22.9 18.3 8.2 39 7.8 SE 22 30 12 16 1019.9 - 0.0
18/10:00pm 23.4 18.7 7.9 37 8.2 SE 22 30 12 16 1019.9 - 0.0
18/09:30pm 22.9 18.5 7.4 37 8.1 SE 20 28 11 15 1019.7 - 0.0
18/09:00pm 23.8 19.0 7.4 35 8.6 SE 22 30 12 16 1019.5 1019.4 0.0
18/08:30pm 24.3 20.5 7.4 34 8.9 SE 17 24 9 13 1019.3 - 0.0
18/08:00pm 24.5 20.2 7.2 33 9.1 SSE 19 26 10 14 1019.3 - 0.0
18/07:30pm 24.7 21.2 7.4 33 9.1 S 15 19 8 10 1019.2 - 0.0
18/07:00pm 24.9 22.5 7.1 32 9.3 S 9 13 5 7 1018.9 - 0.0
18/06:30pm 25.6 22.4 6.7 30 9.9 S 13 15 7 8 1018.6 - 0.0
18/06:00pm 26.6 23.3 6.6 28 10.5 S 13 20 7 11 1018.3 1018.2 0.0
18/05:30pm 27.7 23.7 6.5 26 11.2 S 17 24 9 13 1018.1 - 0.0
18/05:00pm 28.3 24.5 5.8 24 11.8 S 15 22 8 12 1018.0 - 0.0
18/04:30pm 28.6 24.1 6.1 24 11.8 S 19 28 10 15 1017.9 - 0.0
18/04:00pm 28.9 24.3 5.7 23 12.2 S 19 33 10 18 1017.9 - 0.0
18/03:30pm 29.2 24.0 5.3 22 12.5 S 22 30 12 16 1017.8 - 0.0
18/03:00pm 28.7 24.1 5.5 23 12.1 S 19 35 10 19 1017.9 1017.8 0.0
18/02:30pm 29.1 24.4 5.9 23 12.2 S 20 35 11 19 1018.0 - 0.0
18/02:00pm 29.5 24.9 5.6 22 12.5 S 19 30 10 16 1018.1 - 0.0
18/01:30pm 28.6 23.8 5.5 23 12.0 S 20 30 11 16 1018.5 - 0.0
18/01:00pm 28.7 23.2 6.1 24 11.9 S 24 35 13 19 1018.8 - 0.0
18/12:30pm 28.7 25.0 6.1 24 11.9 S 15 24 8 13 1019.4 - 0.0
18/12:00pm 27.8 24.0 6.0 25 11.4 SSE 15 24 8 13 1019.9 1019.8 0.0
18/11:30am 27.8 23.4 6.6 26 11.2 S 19 24 10 13 1020.4 - 0.0
18/11:00am 27.4 24.4 6.2 26 11.1 S 11 17 6 9 1020.9 - 0.0
18/10:30am 26.5 24.9 6.5 28 10.5 S 4 11 2 6 1021.0 - 0.0
18/10:00am 26.0 24.7 6.1 28 10.3 ESE 2 7 1 4 1021.2 - 0.0
18/09:30am 24.3 22.1 6.1 31 9.3 ESE 7 11 4 6 1021.4 - 0.0
18/09:00am 22.7 20.1 6.0 34 8.4 ESE 9 13 5 7 1021.5 1021.4 0.0
18/08:30am 21.5 18.8 5.8 36 7.9 ESE 9 11 5 6 1021.3 - 0.0
18/08:00am 19.0 17.9 7.1 46 6.0 SSE 2 6 1 3 1021.1 - 0.0
18/07:30am 16.4 14.0 6.8 53 4.7 SSW 9 9 5 5 1020.8 - 0.0
18/07:00am 15.2 12.7 6.5 56 4.2 S 9 11 5 6 1020.7 - 0.0
18/06:30am 14.8 11.9 6.4 57 4.1 S 11 13 6 7 1020.4 - 0.0
18/06:00am 14.1 11.5 6.0 58 3.9 SSW 9 11 5 6 1020.2 1020.1 0.0
18/05:30am 13.9 11.3 6.0 59 3.8 SW 9 11 5 6 1019.9 - 0.0
18/05:00am 13.9 11.2 5.8 58 3.8 WSW 9 13 5 7 1019.7 - 0.0
18/04:30am 14.6 12.4 5.4 54 4.4 NE 6 7 3 4 1019.3 - 0.0
18/04:00am 14.8 12.7 5.6 54 4.4 ENE 6 7 3 4 1019.4 - 0.0
18/03:30am 15.7 13.6 5.9 52 4.7 SE 6 7 3 4 1019.5 - 0.0
18/03:00am 16.0 14.2 5.6 50 5.0 SSE 4 7 2 4 1019.5 1019.4 0.0
18/02:30am 17.3 15.5 5.3 45 5.8 SE 4 7 2 4 1019.5 - 0.0
18/02:00am 17.7 14.9 5.0 43 6.1 SSE 9 13 5 7 1019.5 - 0.0
18/01:30am 18.1 15.6 5.0 42 6.3 SSE 7 9 4 5 1019.6 - 0.0
18/01:00am 17.9 15.5 5.2 43 6.1 SE 7 9 4 5 1019.8 - 0.0
18/12:30am 18.5 15.6 4.7 40 6.6 ESE 9 13 5 7 1019.9 - 0.0
18/12:00am 20.0 16.8 4.9 37 7.3 SE 11 17 6 9 1020.2 1020.1 0.0
 
Date/Time
CST
Temp
°C
App
Temp
°C
Dew
Point
Rel
Hum
%
Delta-T
°C
Wind Press
QNH
hPa
Press
MSL
hPa
Rain
since 9 am
mm
Dir
 
Spd
km/h
Gust
km/h
Spd
kts
Gust
kts
17/11:30pm 19.8 16.9 4.7 37 7.3 SSE 9 13 5 7 1020.5 - 0.0
17/11:00pm 20.1 17.2 4.6 36 7.5 S 9 15 5 8 1020.7 - 0.0
17/10:30pm 20.4 16.8 4.8 36 7.6 S 13 19 7 10 1020.7 - 0.0
17/10:00pm 20.2 17.0 5.1 37 7.4 S 11 15 6 8 1020.6 - 0.0
17/09:30pm 20.9 17.3 4.9 35 7.8 S 13 17 7 9 1020.8 - 0.0
17/09:00pm 21.5 17.8 4.6 33 8.2 S 13 17 7 9 1020.7 1020.6 0.0
17/08:30pm 21.9 18.2 4.5 32 8.5 S 13 17 7 9 1020.5 - 0.0

Other Formats:

Comma delimited format used in spreadsheet applications
http://www.bom.gov.au/fwo/IDS60801/IDS60801.95481.axf

JavaScript Object Notation format (JSON) in row-major order
http://www.bom.gov.au/fwo/IDS60801/IDS60801.95481.json